createdAt,value
2018-06-17T00:00:08.997Z,17.80
2018-06-17T00:02:40.112Z,17.71
2018-06-17T00:05:11.269Z,17.64
2018-06-17T00:07:42.488Z,17.69
2018-06-17T00:10:13.478Z,17.71
2018-06-17T00:12:44.945Z,17.51
2018-06-17T00:15:15.934Z,17.42
2018-06-17T00:17:47.724Z,17.55
2018-06-17T00:20:18.813Z,17.45
2018-06-17T00:22:50.126Z,17.29
2018-06-17T00:25:21.074Z,17.31
2018-06-17T00:27:52.182Z,17.13
2018-06-17T00:30:23.250Z,17.15
2018-06-17T00:32:54.353Z,17.12
2018-06-17T00:35:25.714Z,16.94
2018-06-17T00:37:57.098Z,17.01
2018-06-17T00:40:28.084Z,16.86
2018-06-17T00:42:59.071Z,16.99
2018-06-17T00:45:30.062Z,17.00
2018-06-17T00:48:01.936Z,16.96
2018-06-17T00:50:33.000Z,16.94
2018-06-17T00:53:04.103Z,16.96
2018-06-17T00:55:35.369Z,16.91
2018-06-17T00:58:06.893Z,16.94
2018-06-17T01:00:37.919Z,16.91
2018-06-17T01:03:09.031Z,16.96
2018-06-17T01:05:40.861Z,16.91
2018-06-17T01:08:12.080Z,16.89
2018-06-17T01:10:43.137Z,16.74
2018-06-17T01:13:14.174Z,16.71
2018-06-17T01:15:45.084Z,16.58
2018-06-17T01:18:17.522Z,16.63
2018-06-17T01:20:49.319Z,16.53
2018-06-17T01:23:21.318Z,16.61
2018-06-17T01:25:52.283Z,16.43
2018-06-17T01:28:23.369Z,16.26
2018-06-17T01:30:54.351Z,16.32
2018-06-17T01:33:25.401Z,16.40
2018-06-17T01:35:58.224Z,16.46
2018-06-17T01:38:29.411Z,16.58
2018-06-17T01:41:00.737Z,16.61
2018-06-17T01:43:39.936Z,16.51
2018-06-17T01:46:13.041Z,16.50
2018-06-17T01:48:44.003Z,16.46
2018-06-17T01:51:15.151Z,16.24
2018-06-17T01:53:46.455Z,16.16
2018-06-17T01:56:17.437Z,16.14
2018-06-17T01:58:48.496Z,16.14
2018-06-17T02:01:19.505Z,16.18
2018-06-17T02:03:55.655Z,16.15
2018-06-17T02:06:31.854Z,16.11
2018-06-17T02:09:08.202Z,16.08
2018-06-17T02:11:41.654Z,16.01
2018-06-17T02:14:17.604Z,15.91
2018-06-17T02:16:55.245Z,15.93
2018-06-17T02:19:28.061Z,15.86
2018-06-17T02:21:59.736Z,16.05
2018-06-17T02:24:30.809Z,16.07
2018-06-17T02:27:01.916Z,16.01
2018-06-17T02:29:32.895Z,15.94
2018-06-17T02:32:04.150Z,15.97
2018-06-17T02:34:35.104Z,15.99
2018-06-17T02:37:06.694Z,15.93
2018-06-17T02:39:37.910Z,15.89
2018-06-17T02:42:09.777Z,15.82
2018-06-17T02:44:40.773Z,15.87
2018-06-17T02:47:16.910Z,15.85
2018-06-17T02:49:49.409Z,15.77
2018-06-17T02:52:25.553Z,15.85
2018-06-17T02:54:56.903Z,15.84
2018-06-17T02:57:27.937Z,15.76
2018-06-17T02:59:59.111Z,15.74
2018-06-17T03:02:30.256Z,15.63
2018-06-17T03:05:01.398Z,15.64
2018-06-17T03:07:32.539Z,15.48
2018-06-17T03:10:03.651Z,15.58
2018-06-17T03:12:34.773Z,15.68
2018-06-17T03:15:05.768Z,15.69
2018-06-17T03:17:36.906Z,15.75
2018-06-17T03:20:07.877Z,15.70
2018-06-17T03:22:39.062Z,15.56
2018-06-17T03:25:15.130Z,15.54
2018-06-17T03:27:51.359Z,15.38
2018-06-17T03:30:27.329Z,15.38
2018-06-17T03:33:03.315Z,15.37
2018-06-17T03:35:39.364Z,15.14
2018-06-17T03:38:10.484Z,15.25
2018-06-17T03:40:41.541Z,15.31
2018-06-17T03:43:12.520Z,15.41
2018-06-17T03:45:43.540Z,15.28
2018-06-17T03:48:14.615Z,15.36
2018-06-17T03:50:45.655Z,15.19
2018-06-17T03:53:16.732Z,15.29
2018-06-17T03:55:47.985Z,15.49
2018-06-17T03:58:19.097Z,15.65
2018-06-17T04:00:50.202Z,15.66
2018-06-17T04:03:21.365Z,15.65
2018-06-17T04:05:52.645Z,15.66
2018-06-17T04:08:23.784Z,15.74
2018-06-17T04:10:54.922Z,15.79
2018-06-17T04:13:26.050Z,15.90
2018-06-17T04:15:57.207Z,16.08
2018-06-17T04:18:28.289Z,16.05
2018-06-17T04:20:59.330Z,15.93
2018-06-17T04:23:30.941Z,15.93
2018-06-17T04:26:02.596Z,16.00
2018-06-17T04:28:33.941Z,15.91
2018-06-17T04:31:05.247Z,15.97
2018-06-17T04:33:36.346Z,16.04
2018-06-17T04:36:07.488Z,15.88
2018-06-17T04:38:38.628Z,15.90
2018-06-17T04:41:09.709Z,15.91
2018-06-17T04:43:40.822Z,15.90
2018-06-17T04:46:12.125Z,16.10
2018-06-17T04:48:43.233Z,16.31
2018-06-17T04:51:14.324Z,16.33
2018-06-17T04:53:46.008Z,16.31
2018-06-17T04:56:17.212Z,16.39
2018-06-17T04:58:48.255Z,16.88
2018-06-17T05:01:19.398Z,16.96
2018-06-17T05:03:50.452Z,16.98
2018-06-17T05:06:21.615Z,17.11
2018-06-17T05:08:52.627Z,17.07
2018-06-17T05:11:23.715Z,16.99
2018-06-17T05:13:54.845Z,17.14
2018-06-17T05:16:26.047Z,17.11
2018-06-17T05:18:57.060Z,17.30
2018-06-17T05:21:28.102Z,17.51
2018-06-17T05:23:59.229Z,17.52
2018-06-17T05:26:30.333Z,17.40
2018-06-17T05:29:01.403Z,17.44
2018-06-17T05:31:32.549Z,17.46
2018-06-17T05:34:03.601Z,17.51
2018-06-17T05:36:35.117Z,17.61
2018-06-17T05:39:09.982Z,17.49
2018-06-17T05:41:41.117Z,17.55
2018-06-17T05:44:12.235Z,17.64
2018-06-17T05:46:43.309Z,17.74
2018-06-17T05:49:14.427Z,17.89
2018-06-17T05:51:45.539Z,17.97
2018-06-17T05:54:16.769Z,18.15
2018-06-17T05:56:47.841Z,18.28
2018-06-17T05:59:18.885Z,18.28
2018-06-17T06:01:49.970Z,18.45
2018-06-17T06:04:21.034Z,18.54
2018-06-17T06:06:52.132Z,18.77
2018-06-17T06:09:23.253Z,18.73
2018-06-17T06:11:54.389Z,18.67
2018-06-17T06:14:25.565Z,18.79
2018-06-17T06:16:56.812Z,18.84
2018-06-17T06:19:27.995Z,19.12
2018-06-17T06:21:59.060Z,19.26
2018-06-17T06:24:30.483Z,19.45
2018-06-17T06:27:01.535Z,19.70
2018-06-17T06:29:32.921Z,19.81
2018-06-17T06:32:04.046Z,19.85
2018-06-17T06:34:35.191Z,19.91
2018-06-17T06:37:06.190Z,19.88
2018-06-17T06:39:37.328Z,19.94
2018-06-17T06:42:08.440Z,20.21
2018-06-17T06:44:40.873Z,20.62
2018-06-17T06:47:11.929Z,20.51
2018-06-17T06:49:42.892Z,20.79
2018-06-17T06:52:14.835Z,20.92
2018-06-17T06:54:45.857Z,20.88
2018-06-17T06:57:16.913Z,20.80
2018-06-17T06:59:47.906Z,21.09
2018-06-17T07:02:29.591Z,21.24
2018-06-17T07:05:11.399Z,21.40
2018-06-17T07:08:56.720Z,21.23
2018-06-17T07:11:28.121Z,21.51
2018-06-17T07:13:59.192Z,21.67
2018-06-17T07:16:40.835Z,21.59
2018-06-17T07:19:11.945Z,21.47
2018-06-17T07:21:43.436Z,21.52
2018-06-17T07:24:14.249Z,21.64
2018-06-17T07:26:56.789Z,21.80
2018-06-17T07:29:39.746Z,21.90
2018-06-17T07:32:10.400Z,22.07
2018-06-17T07:34:41.077Z,21.97
2018-06-17T07:37:11.913Z,21.89
2018-06-17T07:41:05.973Z,21.77
2018-06-17T07:43:38.736Z,22.14
2018-06-17T07:46:09.462Z,21.98
2018-06-17T07:49:49.688Z,21.91
2018-06-17T07:52:32.369Z,21.83
2018-06-17T07:55:04.299Z,22.05
2018-06-17T07:57:35.762Z,22.17
2018-06-17T08:00:06.309Z,22.18
2018-06-17T08:02:36.958Z,21.93
2018-06-17T08:05:07.718Z,22.02
2018-06-17T08:07:38.577Z,22.19
2018-06-17T08:10:09.653Z,22.42
2018-06-17T08:12:40.405Z,22.36
2018-06-17T08:15:11.154Z,21.91
2018-06-17T08:17:42.238Z,22.18
2018-06-17T08:20:13.199Z,22.31
2018-06-17T08:22:43.737Z,22.25
2018-06-17T08:25:14.510Z,22.14
2018-06-17T08:27:45.226Z,22.03
2018-06-17T08:30:16.066Z,21.84
2018-06-17T08:32:46.970Z,21.78
2018-06-17T08:35:17.906Z,21.85
2018-06-17T08:37:48.806Z,21.75
2018-06-17T08:40:19.700Z,21.75
2018-06-17T08:42:50.948Z,22.15
2018-06-17T08:45:21.947Z,22.11
2018-06-17T08:47:56.839Z,22.37
2018-06-17T08:50:28.299Z,22.33
2018-06-17T08:52:59.538Z,22.19
2018-06-17T08:55:30.479Z,22.46
2018-06-17T08:58:01.314Z,22.42
2018-06-17T09:00:32.192Z,22.62
2018-06-17T09:03:03.763Z,22.31
2018-06-17T09:05:34.471Z,22.33
2018-06-17T09:08:05.061Z,22.51
2018-06-17T09:10:36.416Z,22.29
2018-06-17T09:13:07.132Z,22.41
2018-06-17T09:15:37.958Z,22.27
2018-06-17T09:18:08.704Z,22.41
2018-06-17T09:20:39.545Z,22.22
2018-06-17T09:23:10.456Z,22.32
2018-06-17T09:25:41.349Z,22.49
2018-06-17T09:28:12.156Z,22.45
2018-06-17T09:30:43.040Z,22.17
2018-06-17T09:33:13.901Z,22.28
2018-06-17T09:35:44.666Z,22.17
2018-06-17T09:38:15.669Z,22.57
2018-06-17T09:40:46.542Z,22.66
2018-06-17T09:43:17.349Z,22.53
2018-06-17T09:45:48.240Z,22.41
2018-06-17T09:48:19.149Z,22.09
2018-06-17T09:50:52.739Z,22.36
2018-06-17T09:53:23.769Z,22.10
2018-06-17T09:55:54.761Z,22.09
2018-06-17T09:58:25.783Z,21.79
2018-06-17T10:00:56.680Z,21.75
2018-06-17T10:03:27.641Z,21.89
2018-06-17T10:05:58.550Z,21.84
2018-06-17T10:08:29.648Z,21.87
2018-06-17T10:11:02.659Z,21.90
2018-06-17T10:13:37.180Z,21.92
2018-06-17T10:16:08.386Z,22.31
2018-06-17T10:18:39.502Z,22.15
2018-06-17T10:21:10.895Z,21.74
2018-06-17T10:23:42.104Z,22.20
2018-06-17T10:26:13.113Z,22.12
2018-06-17T10:28:44.392Z,22.08
2018-06-17T10:31:15.469Z,21.94
2018-06-17T10:33:47.089Z,22.25
2018-06-17T10:36:18.187Z,22.13
2018-06-17T10:38:49.481Z,21.96
2018-06-17T10:41:20.422Z,21.85
2018-06-17T10:43:51.384Z,21.91
2018-06-17T10:46:22.315Z,21.57
2018-06-17T10:48:53.591Z,21.67
2018-06-17T10:51:24.527Z,21.39
2018-06-17T10:53:55.578Z,21.62
2018-06-17T10:56:27.742Z,21.62
2018-06-17T10:58:58.727Z,21.69
2018-06-17T11:01:29.648Z,21.91
2018-06-17T11:04:00.797Z,21.94
2018-06-17T11:06:31.870Z,22.22
2018-06-17T11:09:03.217Z,22.16
2018-06-17T11:11:34.403Z,22.50
2018-06-17T11:14:05.333Z,22.31
2018-06-17T11:16:36.718Z,22.04
2018-06-17T11:19:07.867Z,21.97
2018-06-17T11:21:39.017Z,21.59
2018-06-17T11:24:09.978Z,21.37
2018-06-17T11:26:41.095Z,21.08
2018-06-17T11:29:12.164Z,21.35
2018-06-17T11:31:49.001Z,21.48
2018-06-17T11:34:19.949Z,21.35
2018-06-17T11:36:51.026Z,21.04
2018-06-17T11:39:22.130Z,21.01
2018-06-17T11:41:54.241Z,21.42
2018-06-17T11:44:25.326Z,21.56
2018-06-17T11:46:56.783Z,21.33
2018-06-17T11:49:27.853Z,21.35
2018-06-17T11:51:58.965Z,21.64
2018-06-17T11:54:30.155Z,21.79
2018-06-17T11:57:01.354Z,22.01
2018-06-17T11:59:32.493Z,21.96
2018-06-17T12:02:03.559Z,21.87
2018-06-17T12:04:34.553Z,21.99
2018-06-17T12:07:05.825Z,22.22
2018-06-17T12:09:36.746Z,22.30
2018-06-17T12:12:07.880Z,22.63
2018-06-17T12:14:38.856Z,22.98
2018-06-17T12:17:10.022Z,22.39
2018-06-17T12:19:41.133Z,22.97
2018-06-17T12:22:12.507Z,23.07
2018-06-17T12:24:43.592Z,23.23
2018-06-17T12:27:14.681Z,22.89
2018-06-17T12:29:45.708Z,22.94
2018-06-17T12:32:16.733Z,22.95
2018-06-17T12:34:47.827Z,22.71
2018-06-17T12:37:19.009Z,23.14
2018-06-17T12:39:50.074Z,23.60
2018-06-17T12:42:21.130Z,23.28
2018-06-17T12:44:52.189Z,22.67
2018-06-17T12:47:23.178Z,22.47
2018-06-17T12:49:54.433Z,22.36
2018-06-17T12:52:25.455Z,22.07
2018-06-17T12:54:56.494Z,21.95
2018-06-17T12:57:28.471Z,22.22
2018-06-17T12:59:59.501Z,22.09
2018-06-17T13:02:30.455Z,22.18
2018-06-17T13:05:01.619Z,22.47
2018-06-17T13:07:32.598Z,22.07
2018-06-17T13:10:03.911Z,22.08
2018-06-17T13:12:34.984Z,22.38
2018-06-17T13:15:05.979Z,22.16
2018-06-17T13:17:37.117Z,22.25
2018-06-17T13:20:08.147Z,22.05
2018-06-17T13:22:39.171Z,21.98
2018-06-17T13:25:10.536Z,21.77
2018-06-17T13:27:41.689Z,21.61
2018-06-17T13:30:13.010Z,21.70
2018-06-17T13:32:44.155Z,21.57
2018-06-17T13:35:17.965Z,21.62
2018-06-17T13:37:49.002Z,21.62
2018-06-17T13:40:20.071Z,21.62
2018-06-17T13:42:51.184Z,21.75
2018-06-17T13:45:22.700Z,21.92
2018-06-17T13:47:53.631Z,21.74
2018-06-17T13:50:24.799Z,21.83
2018-06-17T13:52:57.164Z,21.74
2018-06-17T13:55:28.354Z,22.10
2018-06-17T13:57:59.405Z,22.08
2018-06-17T14:00:30.465Z,22.30
2018-06-17T14:03:01.558Z,22.28
2018-06-17T14:05:32.684Z,21.97
2018-06-17T14:08:04.441Z,22.06
2018-06-17T14:10:35.542Z,21.85
2018-06-17T14:13:06.866Z,21.90
2018-06-17T14:15:37.894Z,21.95
2018-06-17T14:18:08.876Z,22.34
2018-06-17T14:20:39.953Z,22.35
2018-06-17T14:23:10.992Z,22.14
2018-06-17T14:25:42.103Z,22.18
2018-06-17T14:28:13.127Z,22.22
2018-06-17T14:30:44.231Z,22.31
2018-06-17T14:33:15.995Z,22.59
2018-06-17T14:35:47.043Z,23.17
2018-06-17T14:38:18.312Z,22.51
2018-06-17T14:40:54.404Z,22.75
2018-06-17T14:43:30.806Z,22.60
2018-06-17T14:46:06.709Z,22.35
2018-06-17T14:48:42.785Z,22.46
2018-06-17T14:51:18.676Z,22.56
2018-06-17T14:53:49.744Z,22.79
2018-06-17T14:56:20.910Z,22.54
2018-06-17T14:58:52.205Z,22.51
2018-06-17T15:01:23.125Z,22.42
2018-06-17T15:03:54.204Z,22.39
2018-06-17T15:06:25.128Z,22.54
2018-06-17T15:08:56.294Z,22.66
2018-06-17T15:11:27.409Z,22.18
2018-06-17T15:13:58.923Z,22.50
2018-06-17T15:16:29.922Z,22.08
2018-06-17T15:19:02.138Z,22.07
2018-06-17T15:21:33.258Z,22.41
2018-06-17T15:24:05.198Z,22.21
2018-06-17T15:26:36.220Z,21.86
2018-06-17T15:29:07.243Z,21.77
2018-06-17T15:31:43.751Z,21.96
2018-06-17T15:34:20.043Z,22.09
2018-06-17T15:36:56.210Z,22.15
2018-06-17T15:39:32.534Z,22.14
2018-06-17T15:42:03.915Z,22.22
2018-06-17T15:44:34.957Z,22.11
2018-06-17T15:47:05.959Z,22.11
2018-06-17T15:49:36.996Z,22.08
2018-06-17T15:52:08.380Z,22.27
2018-06-17T15:54:39.466Z,22.34
2018-06-17T15:57:10.700Z,22.09
2018-06-17T15:59:41.700Z,22.25
2018-06-17T16:02:12.876Z,22.40
2018-06-17T16:04:43.895Z,22.46
2018-06-17T16:07:15.376Z,22.47
2018-06-17T16:09:46.380Z,22.37
2018-06-17T16:12:22.578Z,22.25
2018-06-17T16:14:58.726Z,22.40
2018-06-17T16:17:34.635Z,22.48
2018-06-17T16:20:11.303Z,22.19
2018-06-17T16:22:42.592Z,22.48
2018-06-17T16:25:13.839Z,22.39
2018-06-17T16:27:44.894Z,22.06
2018-06-17T16:30:15.942Z,22.07
2018-06-17T16:32:47.181Z,22.04
2018-06-17T16:35:18.318Z,22.24
2018-06-17T16:37:50.270Z,22.00
2018-06-17T16:40:21.477Z,22.03
2018-06-17T16:42:53.318Z,22.20
2018-06-17T16:45:24.320Z,22.18
2018-06-17T16:47:55.600Z,22.31
2018-06-17T16:50:26.807Z,22.15
2018-06-17T16:53:02.761Z,22.18
2018-06-17T16:55:38.871Z,22.25
2018-06-17T16:58:14.908Z,22.29
2018-06-17T17:00:46.031Z,22.37
2018-06-17T17:03:17.035Z,22.06
2018-06-17T17:05:48.081Z,21.84
2018-06-17T17:08:19.223Z,21.52
2018-06-17T17:10:50.847Z,21.72
2018-06-17T17:13:22.090Z,21.62
2018-06-17T17:15:55.393Z,21.46
2018-06-17T17:18:28.676Z,21.67
2018-06-17T17:21:01.643Z,21.76
2018-06-17T17:23:34.575Z,21.59
2018-06-17T17:26:06.528Z,21.64
2018-06-17T17:28:38.895Z,21.78
2018-06-17T17:31:10.669Z,21.93
2018-06-17T17:33:47.905Z,22.03
2018-06-17T17:36:24.322Z,22.01
2018-06-17T17:39:00.456Z,21.96
2018-06-17T17:41:31.645Z,21.67
2018-06-17T17:44:03.964Z,21.67
2018-06-17T17:46:40.087Z,21.60
2018-06-17T17:49:11.105Z,21.50
2018-06-17T17:51:42.139Z,21.51
2018-06-17T17:54:13.360Z,21.51
2018-06-17T17:56:44.658Z,21.44
2018-06-17T17:59:15.906Z,21.59
2018-06-17T18:01:47.061Z,21.46
2018-06-17T18:04:18.611Z,21.43
2018-06-17T18:06:50.510Z,21.28
2018-06-17T18:09:23.071Z,21.29
2018-06-17T18:11:54.289Z,21.24
2018-06-17T18:14:25.797Z,21.29
2018-06-17T18:16:56.809Z,21.24
2018-06-17T18:19:28.434Z,21.18
2018-06-17T18:21:59.594Z,21.02
2018-06-17T18:24:31.114Z,20.96
2018-06-17T18:27:07.459Z,20.83
2018-06-17T18:29:43.899Z,20.68
2018-06-17T18:32:20.326Z,20.84
2018-06-17T18:34:57.381Z,20.65
2018-06-17T18:37:28.519Z,20.63
2018-06-17T18:39:59.869Z,20.56
2018-06-17T18:42:31.003Z,20.48
2018-06-17T18:45:02.980Z,20.45
2018-06-17T18:47:35.765Z,20.46
2018-06-17T18:50:07.021Z,20.33
2018-06-17T18:52:38.656Z,20.33
2018-06-17T18:55:11.357Z,20.26
2018-06-17T18:57:42.990Z,20.26
2018-06-17T19:00:14.537Z,20.17
2018-06-17T19:02:46.082Z,20.00
2018-06-17T19:05:18.002Z,20.08
2018-06-17T19:07:49.505Z,19.98
2018-06-17T19:10:26.440Z,19.95
2018-06-17T19:13:02.776Z,19.88
2018-06-17T19:15:39.337Z,19.88
2018-06-17T19:18:13.606Z,19.99
2018-06-17T19:20:46.028Z,19.97
2018-06-17T19:23:17.588Z,19.93
2018-06-17T19:25:49.379Z,19.82
2018-06-17T19:28:21.319Z,19.69
2018-06-17T19:30:54.488Z,19.68
2018-06-17T19:33:28.291Z,19.75
2018-06-17T19:35:59.810Z,19.72
2018-06-17T19:38:31.373Z,19.63
2018-06-17T19:41:02.900Z,19.65
2018-06-17T19:43:34.130Z,19.64
2018-06-17T19:46:05.405Z,19.53
2018-06-17T19:48:36.954Z,19.36
2018-06-17T19:51:13.130Z,19.34
2018-06-17T19:54:51.232Z,19.28
2018-06-17T19:57:27.865Z,18.83
2018-06-17T20:00:04.061Z,18.68
2018-06-17T20:02:35.664Z,18.81
2018-06-17T20:05:08.584Z,18.92
2018-06-17T20:07:42.101Z,18.77
2018-06-17T20:10:14.267Z,18.94
2018-06-17T20:12:46.828Z,18.91
2018-06-17T20:15:18.948Z,18.88
2018-06-17T20:17:51.524Z,18.71
2018-06-17T20:20:24.327Z,18.74
2018-06-17T20:22:56.956Z,18.69
2018-06-17T20:25:31.597Z,18.73
2018-06-17T20:28:04.593Z,18.57
2018-06-17T20:30:35.801Z,18.37
2018-06-17T20:33:12.093Z,18.49
2018-06-17T20:35:48.400Z,18.48
2018-06-17T20:38:25.315Z,18.43
2018-06-17T20:41:01.706Z,18.35
2018-06-17T20:43:37.904Z,18.41
2018-06-17T20:46:09.116Z,18.39
2018-06-17T20:48:40.650Z,18.20
2018-06-17T20:51:12.184Z,18.19
2018-06-17T20:53:43.530Z,18.27
2018-06-17T20:56:15.359Z,18.20
2018-06-17T20:58:46.854Z,18.14
2018-06-17T21:01:18.464Z,18.15
2018-06-17T21:03:49.592Z,18.15
2018-06-17T21:06:20.902Z,18.21
2018-06-17T21:08:52.106Z,17.93
2018-06-17T21:11:23.342Z,17.71
2018-06-17T21:13:54.573Z,17.98
2018-06-17T21:16:25.762Z,18.07
2018-06-17T21:19:02.616Z,18.05
2018-06-17T21:21:38.841Z,18.26
2018-06-17T21:24:16.566Z,17.97
2018-06-17T21:26:52.759Z,17.97
2018-06-17T21:29:24.217Z,18.04
2018-06-17T21:31:55.346Z,18.14
2018-06-17T21:34:28.688Z,18.06
2018-06-17T21:37:00.134Z,17.78
2018-06-17T21:39:31.393Z,17.67
2018-06-17T21:42:02.520Z,17.69
2018-06-17T21:44:33.797Z,17.68
2018-06-17T21:47:05.043Z,17.43
2018-06-17T21:49:36.731Z,17.62
2018-06-17T21:52:08.361Z,17.64
2018-06-17T21:54:39.813Z,17.46
2018-06-17T21:57:11.185Z,17.58
2018-06-17T21:59:42.553Z,17.59
2018-06-17T22:02:13.830Z,17.59
2018-06-17T22:04:45.669Z,17.44
2018-06-17T22:07:17.570Z,17.63
2018-06-17T22:09:54.660Z,17.49
2018-06-17T22:12:31.148Z,17.41
2018-06-17T22:15:08.132Z,17.45
2018-06-17T22:17:44.219Z,17.35
2018-06-17T22:20:15.516Z,17.06
2018-06-17T22:22:46.835Z,17.13
2018-06-17T22:25:19.073Z,17.16
2018-06-17T22:27:50.289Z,17.19
2018-06-17T22:30:21.722Z,16.97
2018-06-17T22:32:53.085Z,17.06
2018-06-17T22:35:24.155Z,17.02
2018-06-17T22:37:55.507Z,17.00
2018-06-17T22:40:26.697Z,16.96
2018-06-17T22:42:57.813Z,16.95
2018-06-17T22:45:29.175Z,17.01
2018-06-17T22:48:00.887Z,16.91
2018-06-17T22:50:32.234Z,16.91
2018-06-17T22:53:13.812Z,16.68
2018-06-17T22:55:45.269Z,16.85
2018-06-17T22:58:21.678Z,16.90
2018-06-17T23:00:59.312Z,16.85
2018-06-17T23:03:36.298Z,16.93
2018-06-17T23:06:12.931Z,16.95
2018-06-17T23:09:51.750Z,16.76
2018-06-17T23:12:23.024Z,16.83
2018-06-17T23:14:54.193Z,16.80
2018-06-17T23:17:26.285Z,16.70
2018-06-17T23:19:57.555Z,16.67
2018-06-17T23:22:29.408Z,16.76
2018-06-17T23:25:00.692Z,16.66
2018-06-17T23:27:31.772Z,16.54
2018-06-17T23:30:02.892Z,16.67
2018-06-17T23:32:34.833Z,16.59
2018-06-17T23:35:06.035Z,16.67
2018-06-17T23:37:38.323Z,16.62
2018-06-17T23:40:09.577Z,16.69
2018-06-17T23:42:41.050Z,16.62
2018-06-17T23:45:12.148Z,16.58
2018-06-17T23:47:48.953Z,16.52
2018-06-17T23:50:24.996Z,16.56
2018-06-17T23:53:01.307Z,16.54
2018-06-17T23:55:37.589Z,16.57
2018-06-17T23:58:09.142Z,16.53
